createdAt,value
2022-11-21T11:26:28.964Z,23.95
2022-11-21T11:29:14.639Z,21.80
2022-11-21T11:31:46.012Z,20.80
2022-11-21T11:34:16.616Z,16.27
2022-11-21T11:36:56.818Z,20.88
2022-11-21T11:39:41.295Z,20.25
2022-11-21T11:43:06.660Z,15.60
2022-11-21T11:46:17.740Z,12.48
2022-11-21T11:49:11.468Z,13.88
2022-11-21T11:54:10.170Z,12.68
2022-11-21T11:56:39.769Z,11.27
2022-11-21T11:59:18.092Z,10.18
2022-11-21T12:01:54.855Z,12.90
2022-11-21T12:04:26.560Z,8.18
2022-11-21T12:10:00.839Z,10.30
2022-11-21T12:15:29.580Z,9.52
2022-11-21T12:18:13.083Z,14.60
2022-11-21T12:20:53.801Z,10.90
2022-11-21T12:23:23.402Z,11.48
2022-11-21T12:26:10.872Z,10.82
2022-11-21T12:28:54.280Z,9.10
2022-11-21T12:31:31.203Z,10.32
2022-11-21T12:34:12.805Z,6.97
2022-11-21T12:36:48.029Z,6.88
2022-11-21T12:39:55.226Z,9.65
2022-11-21T12:42:48.260Z,8.68
2022-11-21T12:45:34.985Z,9.43
2022-11-21T12:48:40.268Z,9.85
2022-11-21T12:51:59.275Z,9.15
2022-11-21T12:55:03.834Z,11.18
2022-11-21T12:57:51.233Z,10.50
2022-11-21T13:00:29.173Z,7.82
2022-11-21T13:03:34.262Z,8.18
2022-11-21T13:06:06.270Z,8.95
2022-11-21T13:08:38.496Z,8.27
2022-11-21T13:11:27.876Z,9.32
2022-11-21T13:14:08.489Z,10.80
2022-11-21T13:16:44.359Z,7.75
2022-11-21T13:19:24.845Z,9.85
2022-11-21T13:21:55.161Z,10.35
2022-11-21T13:24:58.169Z,8.77
2022-11-21T13:27:36.727Z,8.85
2022-11-21T13:30:25.430Z,10.85
2022-11-21T13:32:55.588Z,12.30
2022-11-21T13:35:57.866Z,9.50
2022-11-21T13:38:26.876Z,7.70
2022-11-21T13:41:08.747Z,9.35
2022-11-21T13:43:37.400Z,13.23
2022-11-21T13:46:08.823Z,10.40
2022-11-21T13:49:04.225Z,8.68
2022-11-21T13:51:54.585Z,8.88
2022-11-21T13:55:05.001Z,7.80
2022-11-21T13:57:50.806Z,7.90
2022-11-21T14:05:02.437Z,8.25
2022-11-21T14:07:36.114Z,10.32
2022-11-21T14:10:19.300Z,10.18
2022-11-21T14:12:51.858Z,8.70
2022-11-21T14:15:30.641Z,9.60
2022-11-21T14:18:00.877Z,13.35
2022-11-21T14:20:51.519Z,11.43
2022-11-21T14:23:23.423Z,13.25
2022-11-21T14:28:27.881Z,8.80
2022-11-21T14:31:01.278Z,9.95
2022-11-21T14:33:33.603Z,9.30
2022-11-21T14:36:11.184Z,8.82
2022-11-21T14:38:45.284Z,13.43
2022-11-21T14:41:30.009Z,14.55
2022-11-21T14:44:17.663Z,9.00
2022-11-21T14:46:48.029Z,8.18
2022-11-21T14:49:28.559Z,12.00
2022-11-21T14:52:19.500Z,11.10
2022-11-21T14:55:28.034Z,10.45
2022-11-21T14:57:44.750Z,11.73
2022-11-21T15:03:21.860Z,10.68
2022-11-21T15:06:08.223Z,12.40
2022-11-21T15:09:18.364Z,11.68
2022-11-21T15:11:37.492Z,10.75
2022-11-21T15:14:19.708Z,8.95
2022-11-21T15:16:50.752Z,11.85
2022-11-21T15:19:23.488Z,8.03
2022-11-21T15:21:54.355Z,9.80
2022-11-21T15:24:41.139Z,12.93
2022-11-21T15:27:32.644Z,10.50
2022-11-21T15:30:25.081Z,7.93
2022-11-21T15:33:12.429Z,10.27
2022-11-21T15:35:51.652Z,8.60
2022-11-21T15:38:27.694Z,12.98
2022-11-21T15:41:23.764Z,13.25
2022-11-21T15:43:54.983Z,14.45
2022-11-21T15:46:26.135Z,11.13
2022-11-21T15:48:56.943Z,9.63
2022-11-21T15:51:59.625Z,11.13
2022-11-21T15:54:21.549Z,8.23
2022-11-21T15:56:52.337Z,13.65
2022-11-21T15:59:21.196Z,11.65
2022-11-21T16:01:49.786Z,10.93
2022-11-21T16:04:23.891Z,9.60
2022-11-21T16:06:54.194Z,12.88
2022-11-21T16:09:23.136Z,13.32
2022-11-21T16:11:53.703Z,9.45
2022-11-21T16:14:22.459Z,9.65
2022-11-21T16:16:51.033Z,8.90
2022-11-21T16:19:19.696Z,11.15
2022-11-21T16:21:48.332Z,13.02
2022-11-21T16:24:16.994Z,12.27
2022-11-21T16:26:46.941Z,11.75
2022-11-21T16:29:17.856Z,13.93
2022-11-21T16:31:47.157Z,12.38
2022-11-21T16:34:20.283Z,15.10
2022-11-21T16:36:48.930Z,13.73
2022-11-21T16:39:29.604Z,14.00
2022-11-21T16:41:58.941Z,12.02
2022-11-21T16:44:32.357Z,12.35
2022-11-21T16:47:05.187Z,9.98
2022-11-21T16:49:42.264Z,12.20
2022-11-21T16:52:10.972Z,11.95
2022-11-21T16:54:39.690Z,10.88
2022-11-21T16:57:08.451Z,12.93
2022-11-21T16:59:39.191Z,12.07
2022-11-21T17:02:08.370Z,13.80
2022-11-21T17:04:40.109Z,14.57
2022-11-21T17:07:08.907Z,17.25
2022-11-21T17:09:37.632Z,15.00
2022-11-21T17:12:07.567Z,12.38
2022-11-21T17:18:02.150Z,13.20
2022-11-21T17:20:30.793Z,13.82
2022-11-21T17:22:59.993Z,10.27
2022-11-21T17:25:28.657Z,10.82
2022-11-21T17:28:00.069Z,17.88
2022-11-21T17:30:30.935Z,9.00
2022-11-21T17:33:01.496Z,8.98
2022-11-21T17:35:30.173Z,8.45
2022-11-21T17:37:58.924Z,12.13
2022-11-21T17:40:27.584Z,13.40
2022-11-21T17:42:56.296Z,11.10
2022-11-21T17:45:24.960Z,6.65
2022-11-21T17:47:55.560Z,9.35
2022-11-21T17:50:24.268Z,8.88
2022-11-21T17:52:52.944Z,10.95
2022-11-21T17:55:21.661Z,9.77
2022-11-21T17:57:50.315Z,12.38
2022-11-21T18:00:19.325Z,11.25
2022-11-21T18:02:48.097Z,8.15
2022-11-21T18:05:18.759Z,11.32
2022-11-21T18:07:48.071Z,10.18
2022-11-21T18:10:41.714Z,11.48
2022-11-21T18:13:08.793Z,14.50
2022-11-21T18:15:37.492Z,9.07
2022-11-21T18:18:06.666Z,9.10
2022-11-21T18:20:37.345Z,9.93
2022-11-21T18:23:21.244Z,9.27
2022-11-21T18:34:37.396Z,10.25
2022-11-21T18:37:18.668Z,11.70
2022-11-21T18:40:45.280Z,10.40
2022-11-21T18:44:21.639Z,8.18
2022-11-21T18:46:56.619Z,12.27
2022-11-21T18:49:27.520Z,9.98
2022-11-21T18:51:59.021Z,7.97
2022-11-21T18:54:27.799Z,10.30
2022-11-21T18:56:56.754Z,11.82
2022-11-21T18:59:28.104Z,10.05
2022-11-21T19:01:57.757Z,13.98
2022-11-21T19:04:27.943Z,9.63
2022-11-21T19:06:58.723Z,10.68
2022-11-21T19:09:32.337Z,10.05
2022-11-21T19:12:01.685Z,10.10
2022-11-21T19:14:30.719Z,11.30
2022-11-21T19:16:59.687Z,10.80
2022-11-21T19:19:36.265Z,15.38
2022-11-21T19:22:07.152Z,10.18
2022-11-21T19:25:28.376Z,11.23
2022-11-21T19:27:58.392Z,12.35
2022-11-21T19:30:27.688Z,12.05
2022-11-21T19:32:56.722Z,12.15
2022-11-21T19:35:25.589Z,13.63
2022-11-21T19:37:56.251Z,14.65
2022-11-21T19:40:24.949Z,10.82
2022-11-21T19:42:53.747Z,13.25
2022-11-21T19:45:22.467Z,9.55
2022-11-21T19:47:56.290Z,12.88
2022-11-21T19:50:26.401Z,13.00
2022-11-21T19:52:57.006Z,12.98
2022-11-21T19:55:28.134Z,14.98
2022-11-21T19:57:56.958Z,12.45
2022-11-21T20:00:28.030Z,11.93
2022-11-21T20:02:56.671Z,12.60
2022-11-21T20:05:25.437Z,18.67
2022-11-21T20:08:02.985Z,12.70
2022-11-21T20:10:34.755Z,12.75
2022-11-21T20:13:03.732Z,12.20
2022-11-21T20:15:32.490Z,12.88
2022-11-21T20:18:01.134Z,13.50
2022-11-21T20:20:29.786Z,14.98
2022-11-21T20:23:00.483Z,12.70
2022-11-21T20:25:29.077Z,13.95
2022-11-21T20:27:57.737Z,15.88
2022-11-21T20:30:27.169Z,15.32
2022-11-21T20:32:55.799Z,12.82
2022-11-21T20:35:24.509Z,15.38
2022-11-21T20:37:53.091Z,14.13
2022-11-21T20:40:23.607Z,16.75
2022-11-21T20:42:53.979Z,14.73
2022-11-21T20:48:14.659Z,14.52
2022-11-21T20:53:51.925Z,13.80
2022-11-21T20:56:24.830Z,12.85
2022-11-21T20:58:53.441Z,12.27
2022-11-21T21:01:23.572Z,12.93
2022-11-21T21:03:52.540Z,17.80
2022-11-21T21:06:23.428Z,19.13
2022-11-21T21:08:53.027Z,11.05
2022-11-21T21:11:50.240Z,13.88
2022-11-21T21:16:42.373Z,16.67
2022-11-21T21:19:11.047Z,17.83
2022-11-21T21:21:40.975Z,17.38
2022-11-21T21:24:12.553Z,14.57
2022-11-21T21:26:45.775Z,14.20
2022-11-21T21:29:19.127Z,18.23
2022-11-21T21:31:51.660Z,14.48
2022-11-21T21:34:21.688Z,13.13
2022-11-21T21:36:50.750Z,12.48
2022-11-21T21:39:19.870Z,17.10
2022-11-21T21:41:50.499Z,11.32
2022-11-21T21:44:19.216Z,13.80
2022-11-21T21:46:47.863Z,15.52
2022-11-21T21:49:16.551Z,15.85
2022-11-21T21:51:45.147Z,18.35
2022-11-21T21:54:19.537Z,18.58
2022-11-21T21:56:51.197Z,13.52
2022-11-21T21:59:20.004Z,17.58
2022-11-21T22:01:48.786Z,16.92
2022-11-21T22:04:17.450Z,13.68
2022-11-21T22:06:46.065Z,15.02
2022-11-21T22:09:14.762Z,16.45
2022-11-21T22:11:43.472Z,16.65
2022-11-21T22:14:16.968Z,16.10
2022-11-21T22:16:45.840Z,15.57
2022-11-21T22:19:14.896Z,19.50
2022-11-21T22:21:43.648Z,13.20
2022-11-21T22:24:31.080Z,14.25
2022-11-21T22:27:00.222Z,17.00
2022-11-21T22:29:31.368Z,15.15
2022-11-21T22:32:00.328Z,16.57
2022-11-21T22:34:29.634Z,16.13
2022-11-21T22:36:58.827Z,14.13
2022-11-21T22:39:27.965Z,17.13
2022-11-21T22:41:59.847Z,18.33
2022-11-21T22:44:30.868Z,15.80
2022-11-21T22:47:00.002Z,11.90
2022-11-21T22:49:29.022Z,17.02
2022-11-21T22:51:57.999Z,13.77
2022-11-21T22:54:27.438Z,16.83
2022-11-21T22:56:56.438Z,16.08
2022-11-21T22:59:25.734Z,16.17
2022-11-21T23:01:56.298Z,11.57
2022-11-21T23:04:24.965Z,15.18
2022-11-21T23:06:53.550Z,14.35
2022-11-21T23:09:22.213Z,16.65
2022-11-21T23:11:50.928Z,13.25
2022-11-21T23:14:20.048Z,16.13
2022-11-21T23:16:48.696Z,13.98
2022-11-21T23:19:19.329Z,14.50
2022-11-21T23:21:47.961Z,13.73
2022-11-21T23:24:16.658Z,15.80
2022-11-21T23:26:45.357Z,15.82
2022-11-21T23:29:14.084Z,13.18
2022-11-21T23:31:42.750Z,11.75
2022-11-21T23:34:11.973Z,11.57
2022-11-21T23:36:42.556Z,14.70
2022-11-21T23:39:11.199Z,13.77
2022-11-21T23:41:40.025Z,17.80
2022-11-21T23:44:08.804Z,17.20
2022-11-21T23:46:37.480Z,15.95
2022-11-21T23:49:06.148Z,15.30
2022-11-21T23:51:34.858Z,12.60
2022-11-21T23:54:05.827Z,15.27
2022-11-21T23:56:34.767Z,14.57
2022-11-21T23:59:03.431Z,13.68
